sensor_id;sensor_type;location;lat;lon;timestamp;pressure;altitude;pressure_sealevel;temperature;humidity
63343;BME280;49465;57.664;39.686;2023-07-20T00:00:51;98436.88;;;18.32;62.21
63343;BME280;49465;57.664;39.686;2023-07-20T00:03:25;98447.25;;;18.27;61.89
63343;BME280;49465;57.664;39.686;2023-07-20T00:05:56;98434.03;;;18.05;62.29
63343;BME280;49465;57.664;39.686;2023-07-20T00:08:26;98456.75;;;18.14;62.59
63343;BME280;49465;57.664;39.686;2023-07-20T00:11:05;98444.41;;;18.28;61.37
63343;BME280;49465;57.664;39.686;2023-07-20T00:13:35;98435.69;;;18.06;61.91
63343;BME280;49465;57.664;39.686;2023-07-20T00:16:09;98443.97;;;18.25;61.47
63343;BME280;49465;57.664;39.686;2023-07-20T00:18:44;98444.25;;;18.08;62.70
63343;BME280;49465;57.664;39.686;2023-07-20T00:21:18;98447.03;;;18.22;61.71
63343;BME280;49465;57.664;39.686;2023-07-20T00:23:54;98440.31;;;18.26;62.04
63343;BME280;49465;57.664;39.686;2023-07-20T00:26:26;98439.66;;;18.17;61.17
63343;BME280;49465;57.664;39.686;2023-07-20T00:28:57;98441.63;;;18.08;62.17
63343;BME280;49465;57.664;39.686;2023-07-20T00:31:29;98443.63;;;18.06;61.82
63343;BME280;49465;57.664;39.686;2023-07-20T00:34:00;98439.47;;;17.97;61.76
63343;BME280;49465;57.664;39.686;2023-07-20T00:36:35;98435.09;;;18.11;62.05
63343;BME280;49465;57.664;39.686;2023-07-20T00:39:10;98444.63;;;18.05;61.81
63343;BME280;49465;57.664;39.686;2023-07-20T00:41:42;98440.00;;;18.07;62.15
63343;BME280;49465;57.664;39.686;2023-07-20T00:44:16;98441.47;;;18.16;61.80
63343;BME280;49465;57.664;39.686;2023-07-20T00:46:47;98444.59;;;17.98;62.52
63343;BME280;49465;57.664;39.686;2023-07-20T00:49:17;98441.16;;;18.05;61.80
63343;BME280;49465;57.664;39.686;2023-07-20T00:51:58;98444.81;;;18.25;61.04
63343;BME280;49465;57.664;39.686;2023-07-20T00:54:34;98452.38;;;18.00;61.77
63343;BME280;49465;57.664;39.686;2023-07-20T00:57:16;98446.53;;;18.11;61.05
63343;BME280;49465;57.664;39.686;2023-07-20T00:59:49;98451.59;;;18.06;61.87
63343;BME280;49465;57.664;39.686;2023-07-20T01:02:18;98450.53;;;18.01;61.44
63343;BME280;49465;57.664;39.686;2023-07-20T01:04:56;98454.50;;;18.11;61.52
63343;BME280;49465;57.664;39.686;2023-07-20T01:07:35;98454.34;;;18.20;60.94
63343;BME280;49465;57.664;39.686;2023-07-20T01:13:01;98454.63;;;18.03;61.38
63343;BME280;49465;57.664;39.686;2023-07-20T01:15:35;98458.03;;;17.97;61.69
63343;BME280;49465;57.664;39.686;2023-07-20T01:18:06;98464.81;;;18.00;61.73
63343;BME280;49465;57.664;39.686;2023-07-20T01:20:49;98466.38;;;18.15;61.13
63343;BME280;49465;57.664;39.686;2023-07-20T01:23:55;98467.31;;;18.36;60.20
63343;BME280;49465;57.664;39.686;2023-07-20T01:26:53;98460.75;;;18.32;60.58
63343;BME280;49465;57.664;39.686;2023-07-20T01:32:16;98461.44;;;18.12;61.31
63343;BME280;49465;57.664;39.686;2023-07-20T01:34:48;98461.94;;;18.01;61.44
63343;BME280;49465;57.664;39.686;2023-07-20T01:37:22;98467.25;;;18.01;62.20
63343;BME280;49465;57.664;39.686;2023-07-20T01:40:05;98474.38;;;18.01;61.48
63343;BME280;49465;57.664;39.686;2023-07-20T01:42:47;98467.75;;;18.11;61.53
63343;BME280;49465;57.664;39.686;2023-07-20T01:45:19;98474.06;;;18.10;61.49
63343;BME280;49465;57.664;39.686;2023-07-20T01:47:51;98478.13;;;18.06;61.28
63343;BME280;49465;57.664;39.686;2023-07-20T01:50:31;98477.50;;;18.04;62.05
63343;BME280;49465;57.664;39.686;2023-07-20T01:53:05;98472.63;;;17.86;62.33
63343;BME280;49465;57.664;39.686;2023-07-20T01:55:40;98470.44;;;17.90;61.73
63343;BME280;49465;57.664;39.686;2023-07-20T01:58:12;98477.84;;;18.01;61.63
63343;BME280;49465;57.664;39.686;2023-07-20T02:00:43;98480.47;;;17.94;62.59
63343;BME280;49465;57.664;39.686;2023-07-20T02:03:15;98485.81;;;18.01;61.80
63343;BME280;49465;57.664;39.686;2023-07-20T02:05:49;98486.38;;;17.96;62.01
63343;BME280;49465;57.664;39.686;2023-07-20T02:08:21;98480.13;;;18.04;62.06
63343;BME280;49465;57.664;39.686;2023-07-20T02:10:58;98474.47;;;18.07;61.15
63343;BME280;49465;57.664;39.686;2023-07-20T02:13:30;98485.78;;;18.79;60.02
63343;BME280;49465;57.664;39.686;2023-07-20T02:16:07;98479.03;;;18.20;60.83
63343;BME280;49465;57.664;39.686;2023-07-20T02:18:38;98483.16;;;18.01;62.04
63343;BME280;49465;57.664;39.686;2023-07-20T02:21:16;98487.47;;;18.02;61.91
63343;BME280;49465;57.664;39.686;2023-07-20T02:23:51;98489.78;;;18.12;61.44
63343;BME280;49465;57.664;39.686;2023-07-20T02:26:25;98487.72;;;18.07;61.46
63343;BME280;49465;57.664;39.686;2023-07-20T02:29:00;98485.44;;;18.04;61.68
63343;BME280;49465;57.664;39.686;2023-07-20T02:31:31;98473.94;;;17.97;61.64
63343;BME280;49465;57.664;39.686;2023-07-20T02:34:03;98492.03;;;18.15;61.27
63343;BME280;49465;57.664;39.686;2023-07-20T02:36:33;98489.97;;;18.10;62.03
63343;BME280;49465;57.664;39.686;2023-07-20T02:39:05;98487.94;;;18.12;62.35
63343;BME280;49465;57.664;39.686;2023-07-20T02:41:37;98488.84;;;17.98;61.80
63343;BME280;49465;57.664;39.686;2023-07-20T02:44:18;98498.00;;;18.17;62.20
63343;BME280;49465;57.664;39.686;2023-07-20T02:46:50;98491.31;;;18.21;61.71
63343;BME280;49465;57.664;39.686;2023-07-20T02:49:27;98490.34;;;18.29;61.63
63343;BME280;49465;57.664;39.686;2023-07-20T02:51:57;98500.31;;;18.27;61.56
63343;BME280;49465;57.664;39.686;2023-07-20T02:54:34;98505.41;;;18.28;61.73
63343;BME280;49465;57.664;39.686;2023-07-20T02:57:06;98501.59;;;18.31;61.47
63343;BME280;49465;57.664;39.686;2023-07-20T02:59:38;98514.72;;;18.17;62.17
63343;BME280;49465;57.664;39.686;2023-07-20T03:02:12;98513.38;;;18.28;61.47
63343;BME280;49465;57.664;39.686;2023-07-20T03:04:44;98508.91;;;18.29;61.90
63343;BME280;49465;57.664;39.686;2023-07-20T03:07:18;98518.88;;;18.27;62.43
63343;BME280;49465;57.664;39.686;2023-07-20T03:09:49;98519.28;;;18.24;61.41
63343;BME280;49465;57.664;39.686;2023-07-20T03:12:22;98523.13;;;18.21;61.73
63343;BME280;49465;57.664;39.686;2023-07-20T03:14:54;98526.50;;;18.36;61.85
63343;BME280;49465;57.664;39.686;2023-07-20T03:17:28;98523.66;;;18.38;61.75
63343;BME280;49465;57.664;39.686;2023-07-20T03:19:57;98522.41;;;18.34;61.76
63343;BME280;49465;57.664;39.686;2023-07-20T03:22:28;98528.44;;;18.49;61.59
63343;BME280;49465;57.664;39.686;2023-07-20T03:25:02;98532.47;;;18.38;61.90
63343;BME280;49465;57.664;39.686;2023-07-20T03:27:36;98529.44;;;18.48;61.48
63343;BME280;49465;57.664;39.686;2023-07-20T03:30:05;98521.91;;;18.24;62.78
63343;BME280;49465;57.664;39.686;2023-07-20T03:32:43;98532.75;;;18.50;62.14
63343;BME280;49465;57.664;39.686;2023-07-20T03:35:17;98543.84;;;18.61;61.93
63343;BME280;49465;57.664;39.686;2023-07-20T03:37:51;98531.03;;;18.64;61.16
63343;BME280;49465;57.664;39.686;2023-07-20T03:40:27;98534.09;;;18.68;61.20
63343;BME280;49465;57.664;39.686;2023-07-20T03:43:04;98528.03;;;18.74;61.44
63343;BME280;49465;57.664;39.686;2023-07-20T03:45:43;98528.13;;;18.87;61.55
63343;BME280;49465;57.664;39.686;2023-07-20T03:48:34;98539.19;;;18.91;61.43
63343;BME280;49465;57.664;39.686;2023-07-20T03:51:06;98531.47;;;18.96;61.17
63343;BME280;49465;57.664;39.686;2023-07-20T03:53:36;98531.47;;;18.96;60.97
63343;BME280;49465;57.664;39.686;2023-07-20T03:56:12;98537.66;;;19.10;60.77
63343;BME280;49465;57.664;39.686;2023-07-20T03:58:41;98535.78;;;19.04;60.77
63343;BME280;49465;57.664;39.686;2023-07-20T04:01:13;98542.00;;;19.17;60.86
63343;BME280;49465;57.664;39.686;2023-07-20T04:03:54;98547.75;;;19.28;60.51
63343;BME280;49465;57.664;39.686;2023-07-20T04:06:28;98538.16;;;19.27;60.34
63343;BME280;49465;57.664;39.686;2023-07-20T04:09:02;98540.06;;;19.46;59.57
63343;BME280;49465;57.664;39.686;2023-07-20T04:11:43;98546.22;;;19.47;59.96
63343;BME280;49465;57.664;39.686;2023-07-20T04:14:17;98546.88;;;19.62;59.37
63343;BME280;49465;57.664;39.686;2023-07-20T04:16:55;98555.69;;;19.63;59.64
63343;BME280;49465;57.664;39.686;2023-07-20T04:19:27;98554.19;;;19.47;60.00
63343;BME280;49465;57.664;39.686;2023-07-20T04:21:58;98554.81;;;19.55;59.67
63343;BME280;49465;57.664;39.686;2023-07-20T04:24:30;98557.91;;;19.52;59.44
63343;BME280;49465;57.664;39.686;2023-07-20T04:27:11;98556.25;;;19.58;59.78
63343;BME280;49465;57.664;39.686;2023-07-20T04:29:42;98561.81;;;19.63;59.43
63343;BME280;49465;57.664;39.686;2023-07-20T04:32:14;98568.72;;;19.51;59.48
63343;BME280;49465;57.664;39.686;2023-07-20T04:34:50;98574.38;;;19.76;58.92
63343;BME280;49465;57.664;39.686;2023-07-20T04:37:22;98569.84;;;19.77;58.80
63343;BME280;49465;57.664;39.686;2023-07-20T04:39:51;98576.34;;;19.67;59.02
63343;BME280;49465;57.664;39.686;2023-07-20T04:42:21;98569.25;;;19.74;59.20
63343;BME280;49465;57.664;39.686;2023-07-20T04:44:50;98572.47;;;19.70;59.25
63343;BME280;49465;57.664;39.686;2023-07-20T04:47:25;98571.53;;;19.91;58.40
63343;BME280;49465;57.664;39.686;2023-07-20T04:49:54;98578.44;;;19.72;59.03
63343;BME280;49465;57.664;39.686;2023-07-20T04:52:23;98575.78;;;19.79;58.42
63343;BME280;49465;57.664;39.686;2023-07-20T04:54:58;98569.06;;;19.83;58.61
63343;BME280;49465;57.664;39.686;2023-07-20T04:57:28;98566.63;;;19.88;58.75
63343;BME280;49465;57.664;39.686;2023-07-20T04:59:58;98580.97;;;20.00;58.45
63343;BME280;49465;57.664;39.686;2023-07-20T05:02:34;98573.59;;;20.02;58.30
63343;BME280;49465;57.664;39.686;2023-07-20T05:05:03;98575.03;;;19.98;58.37
63343;BME280;49465;57.664;39.686;2023-07-20T05:07:37;98569.94;;;20.03;58.63
63343;BME280;49465;57.664;39.686;2023-07-20T05:10:09;98566.44;;;19.96;58.57
63343;BME280;49465;57.664;39.686;2023-07-20T05:12:38;98565.84;;;20.07;58.22
63343;BME280;49465;57.664;39.686;2023-07-20T05:15:08;98569.13;;;20.23;57.76
63343;BME280;49465;57.664;39.686;2023-07-20T05:17:40;98570.78;;;20.24;58.14
63343;BME280;49465;57.664;39.686;2023-07-20T05:20:12;98566.91;;;20.33;57.48
63343;BME280;49465;57.664;39.686;2023-07-20T05:22:44;98577.53;;;20.26;57.66
63343;BME280;49465;57.664;39.686;2023-07-20T05:25:11;98571.78;;;20.23;57.61
63343;BME280;49465;57.664;39.686;2023-07-20T05:27:46;98578.75;;;20.24;57.82
63343;BME280;49465;57.664;39.686;2023-07-20T05:30:20;98582.25;;;20.38;57.82
63343;BME280;49465;57.664;39.686;2023-07-20T05:32:58;98578.56;;;20.32;57.73
63343;BME280;49465;57.664;39.686;2023-07-20T05:35:36;98591.28;;;20.43;57.31
63343;BME280;49465;57.664;39.686;2023-07-20T05:38:12;98591.06;;;20.51;57.15
63343;BME280;49465;57.664;39.686;2023-07-20T05:40:45;98595.00;;;20.62;57.65
63343;BME280;49465;57.664;39.686;2023-07-20T05:43:24;98596.66;;;20.70;56.99
63343;BME280;49465;57.664;39.686;2023-07-20T05:45:56;98583.50;;;20.62;57.05
63343;BME280;49465;57.664;39.686;2023-07-20T05:48:31;98586.78;;;20.64;57.29
63343;BME280;49465;57.664;39.686;2023-07-20T05:51:07;98583.72;;;20.73;57.16
63343;BME280;49465;57.664;39.686;2023-07-20T05:53:48;98586.56;;;20.99;57.09
63343;BME280;49465;57.664;39.686;2023-07-20T05:56:20;98592.13;;;20.77;56.88
63343;BME280;49465;57.664;39.686;2023-07-20T05:58:55;98591.09;;;20.85;56.66
63343;BME280;49465;57.664;39.686;2023-07-20T06:01:31;98588.44;;;20.85;56.43
63343;BME280;49465;57.664;39.686;2023-07-20T06:04:06;98597.03;;;20.80;56.14
63343;BME280;49465;57.664;39.686;2023-07-20T06:06:49;98608.06;;;20.97;56.66
63343;BME280;49465;57.664;39.686;2023-07-20T06:09:26;98599.66;;;21.07;56.29
63343;BME280;49465;57.664;39.686;2023-07-20T06:12:03;98601.09;;;21.03;56.28
63343;BME280;49465;57.664;39.686;2023-07-20T06:14:38;98602.31;;;21.07;56.29
63343;BME280;49465;57.664;39.686;2023-07-20T06:17:15;98607.03;;;21.05;56.41
63343;BME280;49465;57.664;39.686;2023-07-20T06:19:44;98612.38;;;21.11;56.20
63343;BME280;49465;57.664;39.686;2023-07-20T06:22:19;98607.66;;;21.13;55.96
63343;BME280;49465;57.664;39.686;2023-07-20T06:24:51;98611.53;;;21.18;56.73
63343;BME280;49465;57.664;39.686;2023-07-20T06:27:25;98616.22;;;21.22;56.20
63343;BME280;49465;57.664;39.686;2023-07-20T06:29:58;98616.06;;;21.17;56.15
63343;BME280;49465;57.664;39.686;2023-07-20T06:32:30;98615.03;;;21.05;56.20
63343;BME280;49465;57.664;39.686;2023-07-20T06:35:05;98616.06;;;21.17;55.93
63343;BME280;49465;57.664;39.686;2023-07-20T06:37:35;98630.56;;;21.28;55.96
63343;BME280;49465;57.664;39.686;2023-07-20T06:40:10;98619.06;;;21.34;56.35
63343;BME280;49465;57.664;39.686;2023-07-20T06:42:39;98622.19;;;21.11;56.13
63343;BME280;49465;57.664;39.686;2023-07-20T06:45:08;98617.03;;;21.29;55.95
63343;BME280;49465;57.664;39.686;2023-07-20T06:47:52;98613.56;;;21.29;56.31
63343;BME280;49465;57.664;39.686;2023-07-20T06:50:25;98622.75;;;21.40;55.75
63343;BME280;49465;57.664;39.686;2023-07-20T06:52:56;98621.75;;;21.41;56.36
63343;BME280;49465;57.664;39.686;2023-07-20T06:55:26;98617.88;;;21.43;56.06
63343;BME280;49465;57.664;39.686;2023-07-20T06:57:57;98617.78;;;21.63;55.35
63343;BME280;49465;57.664;39.686;2023-07-20T07:00:32;98615.13;;;21.70;55.76
63343;BME280;49465;57.664;39.686;2023-07-20T07:03:06;98613.81;;;21.79;55.30
63343;BME280;49465;57.664;39.686;2023-07-20T07:05:36;98620.41;;;21.77;55.44
63343;BME280;49465;57.664;39.686;2023-07-20T07:08:04;98629.66;;;21.67;56.17
63343;BME280;49465;57.664;39.686;2023-07-20T07:10:36;98630.28;;;21.69;55.99
63343;BME280;49465;57.664;39.686;2023-07-20T07:13:11;98623.47;;;21.80;56.43
63343;BME280;49465;57.664;39.686;2023-07-20T07:15:43;98627.69;;;21.56;56.33
63343;BME280;49465;57.664;39.686;2023-07-20T07:18:15;98632.59;;;21.52;56.15
63343;BME280;49465;57.664;39.686;2023-07-20T07:20:49;98619.69;;;21.36;56.35
63343;BME280;49465;57.664;39.686;2023-07-20T07:23:19;98629.34;;;21.50;56.29
63343;BME280;49465;57.664;39.686;2023-07-20T07:25:54;98628.91;;;21.53;56.11
63343;BME280;49465;57.664;39.686;2023-07-20T07:28:23;98624.16;;;21.56;56.41
63343;BME280;49465;57.664;39.686;2023-07-20T07:31:02;98625.34;;;21.80;56.82
63343;BME280;49465;57.664;39.686;2023-07-20T07:33:39;98630.22;;;21.89;55.60
63343;BME280;49465;57.664;39.686;2023-07-20T07:36:13;98631.78;;;21.97;56.09
63343;BME280;49465;57.664;39.686;2023-07-20T07:38:42;98630.19;;;21.96;55.62
63343;BME280;49465;57.664;39.686;2023-07-20T07:41:25;98635.25;;;22.04;55.29
63343;BME280;49465;57.664;39.686;2023-07-20T07:43:59;98636.91;;;22.05;56.10
63343;BME280;49465;57.664;39.686;2023-07-20T07:46:29;98632.25;;;21.94;55.99
63343;BME280;49465;57.664;39.686;2023-07-20T07:49:01;98632.56;;;22.11;55.53
63343;BME280;49465;57.664;39.686;2023-07-20T07:51:33;98634.44;;;22.04;55.89
63343;BME280;49465;57.664;39.686;2023-07-20T07:54:04;98624.03;;;22.34;54.91
63343;BME280;49465;57.664;39.686;2023-07-20T07:56:42;98633.03;;;22.40;55.18
63343;BME280;49465;57.664;39.686;2023-07-20T07:59:22;98635.75;;;22.33;55.14
63343;BME280;49465;57.664;39.686;2023-07-20T08:01:54;98629.34;;;22.41;55.40
63343;BME280;49465;57.664;39.686;2023-07-20T08:04:26;98626.84;;;22.71;54.99
63343;BME280;49465;57.664;39.686;2023-07-20T08:07:06;98632.97;;;22.78;54.10
63343;BME280;49465;57.664;39.686;2023-07-20T08:09:44;98631.38;;;22.96;53.66
63343;BME280;49465;57.664;39.686;2023-07-20T08:12:19;98635.81;;;23.08;54.12
63343;BME280;49465;57.664;39.686;2023-07-20T08:14:51;98641.69;;;22.92;54.72
63343;BME280;49465;57.664;39.686;2023-07-20T08:17:23;98631.59;;;22.94;55.06
63343;BME280;49465;57.664;39.686;2023-07-20T08:19:58;98637.31;;;22.98;54.88
63343;BME280;49465;57.664;39.686;2023-07-20T08:22:24;98636.75;;;22.89;55.59
63343;BME280;49465;57.664;39.686;2023-07-20T08:25:02;98638.84;;;23.12;54.22
63343;BME280;49465;57.664;39.686;2023-07-20T08:27:31;98638.34;;;23.03;54.75
63343;BME280;49465;57.664;39.686;2023-07-20T08:30:00;98638.78;;;22.94;54.33
63343;BME280;49465;57.664;39.686;2023-07-20T08:32:30;98635.84;;;23.02;54.17
63343;BME280;49465;57.664;39.686;2023-07-20T08:34:56;98634.84;;;22.96;53.75
63343;BME280;49465;57.664;39.686;2023-07-20T08:37:23;98644.06;;;23.00;53.32
63343;BME280;49465;57.664;39.686;2023-07-20T08:39:49;98635.06;;;22.95;52.99
63343;BME280;49465;57.664;39.686;2023-07-20T08:42:16;98642.50;;;22.93;53.21
63343;BME280;49465;57.664;39.686;2023-07-20T08:44:43;98636.47;;;22.97;53.20
63343;BME280;49465;57.664;39.686;2023-07-20T08:47:12;98642.44;;;22.99;53.40
63343;BME280;49465;57.664;39.686;2023-07-20T08:49:42;98645.09;;;23.06;53.28
63343;BME280;49465;57.664;39.686;2023-07-20T08:52:18;98651.31;;;22.93;53.21
63343;BME280;49465;57.664;39.686;2023-07-20T08:54:50;98646.56;;;22.95;53.51
63343;BME280;49465;57.664;39.686;2023-07-20T08:57:24;98646.19;;;23.17;53.87
63343;BME280;49465;57.664;39.686;2023-07-20T08:59:55;98651.03;;;23.26;52.86
63343;BME280;49465;57.664;39.686;2023-07-20T09:02:25;98641.09;;;23.52;52.49
63343;BME280;49465;57.664;39.686;2023-07-20T09:04:53;98638.50;;;23.45;52.05
63343;BME280;49465;57.664;39.686;2023-07-20T09:07:19;98632.50;;;23.50;52.13
63343;BME280;49465;57.664;39.686;2023-07-20T09:09:48;98633.09;;;23.71;51.26
63343;BME280;49465;57.664;39.686;2023-07-20T09:12:18;98638.81;;;23.93;51.17
63343;BME280;49465;57.664;39.686;2023-07-20T09:14:45;98639.13;;;24.15;51.05
63343;BME280;49465;57.664;39.686;2023-07-20T09:17:17;98644.94;;;24.42;50.77
63343;BME280;49465;57.664;39.686;2023-07-20T09:19:48;98657.06;;;24.44;50.34
63343;BME280;49465;57.664;39.686;2023-07-20T09:22:20;98648.34;;;24.49;49.93
63343;BME280;49465;57.664;39.686;2023-07-20T09:24:47;98640.38;;;24.73;49.58
63343;BME280;49465;57.664;39.686;2023-07-20T09:27:13;98639.44;;;24.79;49.87
63343;BME280;49465;57.664;39.686;2023-07-20T09:29:51;98650.19;;;25.02;49.36
63343;BME280;49465;57.664;39.686;2023-07-20T09:32:19;98662.78;;;25.02;48.69
63343;BME280;49465;57.664;39.686;2023-07-20T09:34:46;98657.44;;;25.02;49.17
63343;BME280;49465;57.664;39.686;2023-07-20T09:37:13;98664.97;;;25.05;48.71
63343;BME280;49465;57.664;39.686;2023-07-20T09:39:43;98664.28;;;24.74;45.29
63343;BME280;49465;57.664;39.686;2023-07-20T09:42:13;98666.56;;;24.59;46.61
63343;BME280;49465;57.664;39.686;2023-07-20T09:44:40;98672.63;;;24.54;46.58
63343;BME280;49465;57.664;39.686;2023-07-20T09:47:07;98674.94;;;24.51;46.86
63343;BME280;49465;57.664;39.686;2023-07-20T09:49:34;98668.19;;;24.60;46.25
63343;BME280;49465;57.664;39.686;2023-07-20T09:52:11;98668.13;;;24.78;46.30
63343;BME280;49465;57.664;39.686;2023-07-20T09:54:45;98664.88;;;24.88;45.92
63343;BME280;49465;57.664;39.686;2023-07-20T09:57:12;98666.38;;;24.72;46.04
63343;BME280;49465;57.664;39.686;2023-07-20T09:59:41;98674.41;;;24.72;46.32
63343;BME280;49465;57.664;39.686;2023-07-20T10:02:25;98668.47;;;24.82;46.87
63343;BME280;49465;57.664;39.686;2023-07-20T10:04:54;98699.09;;;24.74;47.57
63343;BME280;49465;57.664;39.686;2023-07-20T10:07:22;98722.53;;;24.48;49.20
63343;BME280;49465;57.664;39.686;2023-07-20T10:09:53;98722.00;;;24.10;49.81
63343;BME280;49465;57.664;39.686;2023-07-20T10:12:23;98709.00;;;23.95;48.51
63343;BME280;49465;57.664;39.686;2023-07-20T10:20:52;98715.09;;;24.02;48.21
63343;BME280;49465;57.664;39.686;2023-07-20T10:23:23;98713.25;;;23.77;49.96
63343;BME280;49465;57.664;39.686;2023-07-20T10:25:54;98702.66;;;23.71;50.06
63343;BME280;49465;57.664;39.686;2023-07-20T10:28:31;98707.75;;;23.97;51.69
63343;BME280;49465;57.664;39.686;2023-07-20T10:31:00;98703.19;;;23.79;51.68
63343;BME280;49465;57.664;39.686;2023-07-20T10:33:30;98709.66;;;23.90;53.29
63343;BME280;49465;57.664;39.686;2023-07-20T10:36:06;98715.75;;;24.16;52.16
63343;BME280;49465;57.664;39.686;2023-07-20T10:41:33;98706.84;;;24.34;52.20
63343;BME280;49465;57.664;39.686;2023-07-20T10:44:02;98693.69;;;24.32;50.80
63343;BME280;49465;57.664;39.686;2023-07-20T10:46:49;98705.03;;;24.46;51.14
63343;BME280;49465;57.664;39.686;2023-07-20T10:49:21;98715.78;;;24.27;53.12
63343;BME280;49465;57.664;39.686;2023-07-20T10:51:58;98703.34;;;24.52;50.35
63343;BME280;49465;57.664;39.686;2023-07-20T10:56:58;98702.53;;;24.51;50.71
63343;BME280;49465;57.664;39.686;2023-07-20T10:59:45;98696.47;;;24.56;50.76
63343;BME280;49465;57.664;39.686;2023-07-20T11:02:13;98698.41;;;24.48;50.90
63343;BME280;49465;57.664;39.686;2023-07-20T11:07:06;98692.25;;;24.78;49.66
63343;BME280;49465;57.664;39.686;2023-07-20T11:09:41;98692.72;;;24.99;48.15
63343;BME280;49465;57.664;39.686;2023-07-20T11:12:14;98695.41;;;25.11;48.28
63343;BME280;49465;57.664;39.686;2023-07-20T11:14:54;98704.66;;;25.26;49.02
63343;BME280;49465;57.664;39.686;2023-07-20T11:17:20;98687.63;;;25.21;48.11
63343;BME280;49465;57.664;39.686;2023-07-20T11:19:59;98697.56;;;25.44;48.61
63343;BME280;49465;57.664;39.686;2023-07-20T11:22:32;98682.97;;;25.40;47.45
63343;BME280;49465;57.664;39.686;2023-07-20T11:24:59;98691.25;;;25.38;46.66
63343;BME280;49465;57.664;39.686;2023-07-20T11:27:26;98694.06;;;25.32;46.65
63343;BME280;49465;57.664;39.686;2023-07-20T11:29:54;98685.44;;;25.41;47.03
63343;BME280;49465;57.664;39.686;2023-07-20T11:32:24;98696.72;;;25.55;47.13
63343;BME280;49465;57.664;39.686;2023-07-20T11:34:51;98693.34;;;25.48;46.61
63343;BME280;49465;57.664;39.686;2023-07-20T11:37:18;98701.41;;;25.48;47.29
63343;BME280;49465;57.664;39.686;2023-07-20T11:39:44;98696.50;;;25.57;47.21
63343;BME280;49465;57.664;39.686;2023-07-20T11:42:12;98696.34;;;25.75;46.71
63343;BME280;49465;57.664;39.686;2023-07-20T11:44:42;98697.19;;;25.76;46.31
63343;BME280;49465;57.664;39.686;2023-07-20T11:47:10;98702.88;;;25.91;46.06
63343;BME280;49465;57.664;39.686;2023-07-20T11:49:38;98713.28;;;25.99;45.32
63343;BME280;49465;57.664;39.686;2023-07-20T11:52:17;98713.72;;;25.96;44.31
63343;BME280;49465;57.664;39.686;2023-07-20T11:54:49;98697.00;;;26.06;43.93
63343;BME280;49465;57.664;39.686;2023-07-20T11:57:19;98714.88;;;26.00;43.45
63343;BME280;49465;57.664;39.686;2023-07-20T12:00:00;98724.84;;;26.29;44.61
63343;BME280;49465;57.664;39.686;2023-07-20T12:02:29;98713.56;;;26.15;44.19
63343;BME280;49465;57.664;39.686;2023-07-20T12:04:58;98715.31;;;26.21;43.67
63343;BME280;49465;57.664;39.686;2023-07-20T12:07:27;98724.72;;;26.35;44.02
63343;BME280;49465;57.664;39.686;2023-07-20T12:10:11;98725.81;;;26.51;43.97
63343;BME280;49465;57.664;39.686;2023-07-20T12:12:45;98739.88;;;26.41;42.94
63343;BME280;49465;57.664;39.686;2023-07-20T12:15:25;98732.16;;;26.74;43.54
63343;BME280;49465;57.664;39.686;2023-07-20T12:18:02;98742.47;;;26.65;43.83
63343;BME280;49465;57.664;39.686;2023-07-20T12:20:35;98735.31;;;26.71;43.36
63343;BME280;49465;57.664;39.686;2023-07-20T12:23:05;98731.75;;;26.82;43.67
63343;BME280;49465;57.664;39.686;2023-07-20T12:25:46;98730.81;;;27.05;44.36
63343;BME280;49465;57.664;39.686;2023-07-20T12:28:15;98729.59;;;27.30;43.43
63343;BME280;49465;57.664;39.686;2023-07-20T12:30:45;98733.16;;;27.18;42.12
63343;BME280;49465;57.664;39.686;2023-07-20T12:33:12;98735.22;;;27.11;42.89
63343;BME280;49465;57.664;39.686;2023-07-20T12:35:42;98739.28;;;27.14;42.30
63343;BME280;49465;57.664;39.686;2023-07-20T12:38:14;98744.31;;;27.10;42.12
63343;BME280;49465;57.664;39.686;2023-07-20T12:40:40;98742.28;;;27.00;41.90
63343;BME280;49465;57.664;39.686;2023-07-20T12:43:06;98758.66;;;26.99;41.74
63343;BME280;49465;57.664;39.686;2023-07-20T12:45:33;98745.78;;;27.01;41.88
63343;BME280;49465;57.664;39.686;2023-07-20T12:48:00;98748.16;;;26.97;42.28
63343;BME280;49465;57.664;39.686;2023-07-20T12:50:27;98753.09;;;26.89;42.04
63343;BME280;49465;57.664;39.686;2023-07-20T12:52:54;98745.94;;;26.94;42.30
63343;BME280;49465;57.664;39.686;2023-07-20T12:55:20;98752.47;;;26.98;42.45
63343;BME280;49465;57.664;39.686;2023-07-20T12:57:47;98756.03;;;26.87;41.87
63343;BME280;49465;57.664;39.686;2023-07-20T13:00:17;98753.22;;;26.94;41.21
63343;BME280;49465;57.664;39.686;2023-07-20T13:02:46;98759.78;;;26.86;41.94
63343;BME280;49465;57.664;39.686;2023-07-20T13:05:12;98750.25;;;26.78;42.06
63343;BME280;49465;57.664;39.686;2023-07-20T13:07:39;98755.22;;;26.87;42.05
63343;BME280;49465;57.664;39.686;2023-07-20T13:10:06;98757.91;;;26.87;40.94
63343;BME280;49465;57.664;39.686;2023-07-20T13:12:36;98756.31;;;26.86;40.69
63343;BME280;49465;57.664;39.686;2023-07-20T13:15:07;98763.72;;;27.12;40.66
63343;BME280;49465;57.664;39.686;2023-07-20T13:17:35;98758.19;;;27.19;40.47
63343;BME280;49465;57.664;39.686;2023-07-20T13:20:03;98765.09;;;27.27;39.41
63343;BME280;49465;57.664;39.686;2023-07-20T13:22:40;98764.47;;;27.08;39.19
63343;BME280;49465;57.664;39.686;2023-07-20T13:25:07;98770.75;;;27.13;39.54
63343;BME280;49465;57.664;39.686;2023-07-20T13:27:34;98771.38;;;27.03;39.19
63343;BME280;49465;57.664;39.686;2023-07-20T13:30:02;98774.72;;;26.94;39.33
63343;BME280;49465;57.664;39.686;2023-07-20T13:32:32;98771.66;;;26.73;39.80
63343;BME280;49465;57.664;39.686;2023-07-20T13:34:59;98779.72;;;26.73;39.38
63343;BME280;49465;57.664;39.686;2023-07-20T13:37:25;98773.88;;;26.76;39.91